Time;durP1;ratioP1;P1;durP2;ratioP2;P2;SDS_P1;SDS_P2;PMS_P1;PMS_P2;Temp;Humidity;BMP_temperature;BMP_pressure;BME280_temperature;BME280_humidity;BME280_pressure;Samples;Min_cycle;Max_cycle;Signal;HPM_P1;HPM_P2
2022/06/03 00:01:20;;;;;;;2.20;2.00;;;21.70;46.40;23.00;101111.00;;;;4968644;28;20208;-44
2022/06/03 00:04:17;;;;;;;1.90;1.80;;;21.70;46.50;23.00;101090.00;;;;4967347;28;20271;-44
2022/06/03 00:07:01;;;;;;;1.90;1.80;;;21.70;46.40;23.00;101093.00;;;;4969003;28;20180;-44
2022/06/03 00:10:07;;;;;;;2.00;1.90;;;21.70;46.60;23.00;101087.00;;;;4967639;28;20235;-45
2022/06/03 00:12:57;;;;;;;1.93;1.83;;;21.60;46.50;23.00;101074.00;;;;4968461;28;20192;-44
2022/06/03 00:15:32;;;;;;;2.20;2.00;;;21.60;46.50;22.90;101086.00;;;;4967375;28;20160;-44
2022/06/03 00:18:17;;;;;;;2.30;2.10;;;21.60;46.30;22.90;101094.00;;;;4968145;28;20167;-44
2022/06/03 00:20:55;;;;;;;2.10;1.90;;;21.50;46.40;22.90;101102.00;;;;4967186;28;20217;-44
2022/06/03 00:23:42;;;;;;;2.00;1.90;;;21.50;46.40;22.90;101104.00;;;;4967373;28;20169;-45
2022/06/03 00:26:19;;;;;;;1.93;1.83;;;21.50;46.30;22.90;101086.00;;;;4968489;28;20608;-44
2022/06/03 00:29:36;;;;;;;1.90;1.80;;;21.50;46.40;22.90;101085.00;;;;4976044;28;20176;-44
2022/06/03 00:32:19;;;;;;;2.10;1.90;;;21.50;46.40;22.80;101100.00;;;;4968473;28;20737;-44
2022/06/03 00:35:03;;;;;;;2.03;1.90;;;21.50;46.30;22.80;101089.00;;;;4987144;28;20187;-45
2022/06/03 00:37:53;;;;;;;2.20;1.90;;;21.40;46.30;22.80;101088.00;;;;4986362;28;20172;-44
2022/06/03 00:40:50;;;;;;;2.00;1.90;;;21.40;46.40;22.80;101083.00;;;;4971057;28;20161;-44
2022/06/03 00:43:53;;;;;;;1.97;1.80;;;21.50;46.40;22.80;101091.00;;;;4987664;28;20184;-45
2022/06/03 00:46:55;;;;;;;1.90;1.80;;;21.40;46.50;22.70;101076.00;;;;4987625;28;20562;-44
2022/06/03 00:50:04;;;;;;;2.00;1.77;;;21.40;46.50;22.70;101075.00;;;;4986335;28;20260;-45
2022/06/03 00:53:00;;;;;;;2.30;2.10;;;21.40;46.50;22.70;101073.00;;;;4989767;28;20661;-46
2022/06/03 00:56:00;;;;;;;1.97;1.87;;;21.40;46.70;22.70;101079.00;;;;4991403;28;20172;-45
2022/06/03 00:58:57;;;;;;;2.10;2.00;;;21.40;46.50;22.70;101059.00;;;;4989866;28;20669;-44
2022/06/03 01:01:32;;;;;;;2.00;1.80;;;21.30;46.60;22.60;101067.00;;;;4974395;28;20223;-45
2022/06/03 01:04:27;;;;;;;1.80;1.70;;;21.30;46.50;22.60;101069.00;;;;4989880;28;20187;-44
2022/06/03 01:07:09;;;;;;;2.00;1.90;;;21.30;46.50;22.60;101060.00;;;;4990150;28;20164;-44
2022/06/03 01:09:59;;;;;;;2.63;1.87;;;21.30;46.60;22.60;101057.00;;;;4990742;28;20214;-46
2022/06/03 01:12:35;;;;;;;2.00;1.90;;;21.30;46.60;22.60;101061.00;;;;4989965;28;20854;-46
2022/06/03 01:15:52;;;;;;;2.00;1.90;;;21.30;46.60;22.60;101064.00;;;;4990154;28;20652;-45
2022/06/03 01:18:20;;;;;;;1.80;1.70;;;21.20;46.50;22.50;101070.00;;;;4989335;28;20222;-44
2022/06/03 01:21:25;;;;;;;1.90;1.80;;;21.20;46.50;22.50;101050.00;;;;4989129;28;20211;-44
2022/06/03 01:24:20;;;;;;;1.97;1.80;;;21.20;46.50;22.50;101068.00;;;;4977455;28;20206;-45
2022/06/03 01:27:25;;;;;;;1.90;1.80;;;21.20;46.40;22.50;101061.00;;;;4989182;28;20221;-44
2022/06/03 01:30:18;;;;;;;1.90;1.80;;;21.20;46.40;22.50;101058.00;;;;4990191;28;20192;-44
2022/06/03 01:33:26;;;;;;;1.80;1.70;;;21.20;46.50;22.40;101056.00;;;;4989491;28;20708;-45
2022/06/03 01:36:09;;;;;;;1.90;1.80;;;21.10;46.50;22.40;101002.00;;;;4989517;28;20600;-45
2022/06/03 01:39:00;;;;;;;2.00;1.90;;;21.10;46.40;22.40;101062.00;;;;4990865;28;20196;-45
2022/06/03 01:41:25;;;;;;;2.00;1.90;;;21.10;46.40;22.40;101049.00;;;;4973139;28;20750;-45
2022/06/03 01:44:24;;;;;;;1.70;1.60;;;21.10;46.50;22.40;100991.00;;;;4996500;28;20172;-44
2022/06/03 01:47:14;;;;;;;2.40;1.87;;;21.10;46.40;22.40;101054.00;;;;5005853;28;20206;-44
2022/06/03 01:49:45;;;;;;;1.80;1.70;;;21.10;46.50;22.30;101059.00;;;;5004491;28;20172;-46
2022/06/03 01:53:00;;;;;;;1.93;1.83;;;21.10;46.50;22.40;101057.00;;;;4990322;28;20198;-44
2022/06/03 01:55:31;;;;;;;1.73;1.63;;;21.00;46.30;22.30;101057.00;;;;4989877;28;20641;-45
2022/06/03 01:58:18;;;;;;;1.87;1.77;;;21.00;46.50;22.30;101059.00;;;;4989762;28;20184;-43
2022/06/03 02:00:57;;;;;;;1.90;1.80;;;21.10;46.70;22.30;101047.00;;;;4989940;28;20211;-45
2022/06/03 02:03:50;;;;;;;1.90;1.80;;;21.00;46.60;22.30;101053.00;;;;4974218;28;20169;-44
2022/06/03 02:07:09;;;;;;;1.90;1.80;;;21.00;46.60;22.30;101052.00;;;;4990393;28;20251;-43
2022/06/03 02:10:11;;;;;;;1.90;1.80;;;21.10;46.90;22.30;101038.00;;;;4988684;28;20175;-44
2022/06/03 02:13:07;;;;;;;1.87;1.77;;;21.00;47.00;22.30;101049.00;;;;4989633;28;20166;-45
2022/06/03 02:15:42;;;;;;;1.73;1.63;;;21.00;47.00;22.30;101035.00;;;;4989487;28;20523;-44
2022/06/03 02:18:40;;;;;;;1.80;1.70;;;21.00;47.10;22.30;101037.00;;;;4989390;28;20293;-46
2022/06/03 02:21:32;;;;;;;2.00;1.90;;;21.00;47.30;22.30;101027.00;;;;4988299;28;20219;-44
2022/06/03 02:24:55;;;;;;;1.90;1.80;;;21.00;47.40;22.20;101033.00;;;;4974759;28;20186;-44
2022/06/03 02:27:33;;;;;;;1.73;1.63;;;20.90;47.40;22.20;101022.00;;;;4977601;28;20214;-44
2022/06/03 02:30:42;;;;;;;1.90;1.80;;;20.90;47.50;22.20;101025.00;;;;4989290;28;20176;-44
2022/06/03 02:33:20;;;;;;;2.00;1.90;;;21.00;47.60;22.20;101019.00;;;;4986855;28;20283;-48
2022/06/03 02:36:46;;;;;;;1.80;1.70;;;20.90;47.60;22.20;101022.00;;;;4988788;28;20167;-45
2022/06/03 02:40:04;;;;;;;1.70;1.60;;;20.90;47.80;22.20;101020.00;;;;5000490;28;20210;-44
2022/06/03 02:43:01;;;;;;;1.80;1.70;;;20.90;47.80;22.10;101023.00;;;;4991007;28;20562;-44
2022/06/03 02:45:52;;;;;;;1.70;1.60;;;20.90;47.80;22.10;100907.00;;;;4989167;28;20675;-45
2022/06/03 02:48:41;;;;;;;1.80;1.70;;;20.90;48.00;22.10;101012.00;;;;4987700;28;20171;-46
2022/06/03 02:51:21;;;;;;;1.80;1.70;;;20.80;48.00;22.10;101015.00;;;;4972697;28;20726;-47
2022/06/03 02:54:01;;;;;;;1.70;1.60;;;20.80;48.00;22.00;101009.00;;;;4988051;28;20177;-45
2022/06/03 02:56:53;;;;;;;1.53;1.50;;;20.80;48.10;22.00;101007.00;;;;4989018;28;20162;-44
2022/06/03 02:59:40;;;;;;;1.63;1.53;;;20.80;48.10;22.00;100999.00;;;;4973329;28;20376;-44
2022/06/03 03:03:05;;;;;;;1.87;1.77;;;20.80;48.10;22.00;101006.00;;;;4988541;28;20218;-44
2022/06/03 03:05:54;;;;;;;2.70;1.87;;;20.80;48.10;22.00;101007.00;;;;4987728;28;20199;-44
2022/06/03 03:09:02;;;;;;;1.93;1.80;;;20.70;48.00;22.00;101000.00;;;;4987834;28;20546;-44
2022/06/03 03:11:56;;;;;;;1.70;1.60;;;20.70;48.10;21.90;101008.00;;;;4987332;28;20207;-45
2022/06/03 03:15:09;;;;;;;3.30;1.70;;;20.70;48.20;21.90;101009.00;;;;4988377;28;20158;-43
2022/06/03 03:18:01;;;;;;;2.20;1.70;;;20.70;48.20;21.90;101017.00;;;;4987044;28;20187;-45
2022/06/03 03:20:59;;;;;;;4.87;1.93;;;20.70;48.30;21.90;101017.00;;;;4987347;28;20227;-44
2022/06/03 03:23:58;;;;;;;2.70;1.87;;;20.70;48.50;21.90;101014.00;;;;4987002;28;20727;-44
2022/06/03 03:26:46;;;;;;;3.87;2.07;;;20.70;48.20;21.90;101024.00;;;;4972329;28;20170;-44
2022/06/03 03:29:59;;;;;;;4.00;1.80;;;20.70;48.20;21.80;101000.00;;;;4987808;28;20165;-44
2022/06/03 03:32:52;;;;;;;2.40;1.80;;;20.70;48.20;21.80;100994.00;;;;4984104;28;20735;-44
2022/06/03 03:35:54;;;;;;;3.00;1.60;;;20.70;48.20;21.80;101009.00;;;;4987985;28;20192;-44
2022/06/03 03:39:04;;;;;;;3.07;1.90;;;20.70;48.30;21.80;101015.00;;;;4986620;28;20182;-44
2022/06/03 03:41:50;;;;;;;1.80;1.70;;;20.70;48.30;21.80;101007.00;;;;4986501;28;20291;-45
2022/06/03 03:44:52;;;;;;;2.20;1.80;;;20.70;48.40;21.80;101008.00;;;;4972058;28;20169;-44
2022/06/03 03:47:55;;;;;;;1.90;1.80;;;20.60;48.30;21.70;101008.00;;;;4987479;28;20754;-45
2022/06/03 03:50:57;;;;;;;2.00;1.70;;;20.60;48.30;21.70;101018.00;;;;4986636;28;20495;-45
2022/06/03 03:54:18;;;;;;;1.80;1.70;;;20.60;48.30;21.70;101013.00;;;;4971848;28;20263;-45
2022/06/03 03:57:27;;;;;;;1.80;1.70;;;20.60;48.40;21.70;101014.00;;;;4988045;28;20498;-44
2022/06/03 04:00:15;;;;;;;1.80;1.70;;;20.60;48.50;21.70;101017.00;;;;4987836;28;20172;-44
2022/06/03 04:03:29;;;;;;;3.60;1.80;;;20.50;48.40;21.70;101020.00;;;;4987655;28;20193;-45
2022/06/03 04:06:35;;;;;;;2.07;1.83;;;20.50;48.40;21.60;101010.00;;;;4987816;28;20174;-44
2022/06/03 04:09:28;;;;;;;2.17;1.80;;;20.50;48.40;21.60;101006.00;;;;4985966;28;20180;-46
2022/06/03 04:12:06;;;;;;;2.03;1.70;;;20.50;48.50;21.60;100997.00;;;;4987691;28;20212;-44
2022/06/03 04:15:05;;;;;;;1.90;1.80;;;20.50;48.40;21.60;100994.00;;;;4988525;28;20783;-44
2022/06/03 04:18:08;;;;;;;2.80;1.90;;;20.50;48.40;21.60;101007.00;;;;4987916;28;20195;-44
2022/06/03 04:20:56;;;;;;;1.90;1.80;;;20.50;48.50;21.50;100998.00;;;;4985814;28;20208;-46
2022/06/03 04:24:05;;;;;;;2.00;1.90;;;20.50;48.50;21.60;100994.00;;;;4988686;28;20173;-50
2022/06/03 04:26:45;;;;;;;2.23;2.03;;;20.40;48.70;21.60;100979.00;;;;4988877;28;20518;-49
2022/06/03 04:29:35;;;;;;;2.00;1.90;;;20.40;47.70;21.50;100983.00;;;;4990718;28;20583;-50
2022/06/03 04:32:04;;;;;;;2.20;2.07;;;20.30;48.80;21.50;100984.00;;;;4990186;28;20270;-50
2022/06/03 04:34:59;;;;;;;2.83;2.10;;;20.40;48.00;21.50;100974.00;;;;4990953;28;20175;-51
2022/06/03 04:38:07;;;;;;;2.07;1.90;;;20.40;48.70;21.50;100984.00;;;;5002447;28;20174;-50
2022/06/03 04:40:58;;;;;;;2.30;2.10;;;20.30;48.40;21.50;100988.00;;;;5003058;28;20459;-51
2022/06/03 04:44:12;;;;;;;3.07;2.03;;;20.30;48.40;21.50;100984.00;;;;4992731;28;20179;-50
2022/06/03 04:47:18;;;;;;;2.13;2.00;;;20.30;48.70;21.40;100986.00;;;;4990249;28;20180;-51
2022/06/03 04:49:55;;;;;;;2.87;2.13;;;20.30;48.60;21.40;100985.00;;;;4990804;28;20409;-49
2022/06/03 04:52:35;;;;;;;3.17;2.10;;;20.20;48.60;21.40;100987.00;;;;4991017;28;20190;-49
2022/06/03 04:55:38;;;;;;;3.40;2.10;;;20.20;48.80;21.40;100984.00;;;;4990834;28;20204;-49
2022/06/03 04:58:52;;;;;;;2.93;2.07;;;20.20;48.90;21.40;100990.00;;;;4989996;28;20249;-50
2022/06/03 05:02:14;;;;;;;2.00;1.90;;;20.20;48.70;21.40;100991.00;;;;4989437;28;20696;-50
2022/06/03 05:05:16;;;;;;;2.10;2.00;;;20.10;48.70;21.30;100995.00;;;;4990843;28;20173;-50
2022/06/03 05:08:17;;;;;;;2.00;1.90;;;20.10;48.70;21.30;100995.00;;;;4989784;28;20176;-50
2022/06/03 05:11:29;;;;;;;2.03;1.93;;;20.10;48.90;21.20;101000.00;;;;4974216;28;20193;-50
2022/06/03 05:14:35;;;;;;;3.53;2.10;;;20.00;48.90;21.20;100989.00;;;;4990087;28;20172;-51
2022/06/03 05:17:43;;;;;;;4.00;2.10;;;19.90;48.90;21.20;100981.00;;;;4989209;28;20710;-49
2022/06/03 05:21:18;;;;;;;2.30;2.00;;;20.00;49.00;21.20;100980.00;;;;4989071;28;20153;-51
2022/06/03 05:23:44;;;;;;;4.30;2.13;;;19.90;49.00;21.10;100976.00;;;;4989311;28;20292;-51
2022/06/03 05:26:35;;;;;;;2.57;2.00;;;19.90;49.30;21.10;100979.00;;;;4989833;28;20247;-50
2022/06/03 05:29:11;;;;;;;2.30;2.10;;;19.90;49.20;21.10;100977.00;;;;4974037;28;20179;-50
2022/06/03 05:31:49;;;;;;;2.70;2.13;;;19.90;49.30;21.10;100978.00;;;;4990376;28;20200;-50
2022/06/03 05:34:46;;;;;;;3.07;2.10;;;19.90;49.20;21.10;100971.00;;;;4989768;28;20680;-51
2022/06/03 05:37:44;;;;;;;2.77;2.27;;;19.90;49.30;21.10;100972.00;;;;4973197;28;20223;-51
2022/06/03 05:40:28;;;;;;;4.30;2.03;;;19.90;49.30;21.10;100982.00;;;;4975732;28;20299;-50
2022/06/03 05:43:49;;;;;;;2.03;1.93;;;19.90;49.50;21.10;100972.00;;;;4989983;28;20260;-51
2022/06/03 05:46:33;;;;;;;2.50;2.00;;;19.90;49.80;21.00;100965.00;;;;4987712;28;20747;-50
2022/06/03 05:49:26;;;;;;;3.13;2.10;;;19.90;50.10;21.10;100971.00;;;;4972879;28;20161;-50
2022/06/03 05:52:03;;;;;;;2.20;2.00;;;19.90;50.10;21.00;100960.00;;;;4975947;28;20899;-50
2022/06/03 05:55:27;;;;;;;2.30;2.10;;;19.80;50.10;21.00;100963.00;;;;5010168;28;20200;-50
2022/06/03 05:58:18;;;;;;;2.37;2.17;;;19.80;50.10;21.00;100960.00;;;;5008544;28;20159;-50
2022/06/03 06:01:23;;;;;;;1.90;1.80;;;19.80;50.10;21.00;100958.00;;;;4988222;28;20904;-51
2022/06/03 06:04:04;;;;;;;2.23;2.03;;;19.80;50.10;20.90;100951.00;;;;4988713;28;20180;-50
2022/06/03 06:06:59;;;;;;;2.40;2.20;;;19.80;50.10;21.00;100946.00;;;;4988626;28;20155;-51
2022/06/03 06:09:45;;;;;;;2.30;1.90;;;19.80;50.10;21.00;100946.00;;;;4975638;28;20169;-50
2022/06/03 06:12:29;;;;;;;2.00;1.90;;;19.90;50.20;21.00;100947.00;;;;4989508;28;20187;-49
2022/06/03 06:15:23;;;;;;;2.00;1.90;;;19.90;50.10;20.90;100944.00;;;;4989003;28;20227;-50
2022/06/03 06:18:14;;;;;;;1.90;1.80;;;19.80;50.10;20.90;100942.00;;;;4973440;28;20172;-51
2022/06/03 06:21:07;;;;;;;2.03;1.90;;;19.80;50.10;21.00;100947.00;;;;4987591;28;20196;-50
2022/06/03 06:23:39;;;;;;;1.97;1.87;;;19.90;50.10;21.00;100957.00;;;;4989255;28;20172;-49
2022/06/03 06:26:26;;;;;;;2.23;2.00;;;19.80;50.10;21.00;100963.00;;;;4989004;28;20187;-49
2022/06/03 06:29:35;;;;;;;2.10;1.90;;;19.80;50.10;20.90;100950.00;;;;4988174;28;20231;-49
2022/06/03 06:32:56;;;;;;;2.00;1.80;;;19.80;50.10;20.90;100948.00;;;;4988845;28;20279;-50
2022/06/03 06:35:49;;;;;;;2.67;2.00;;;19.80;50.10;20.90;100943.00;;;;4969621;28;20593;-49
2022/06/03 06:39:17;;;;;;;1.93;1.70;;;19.80;50.30;20.90;100942.00;;;;4988277;28;20215;-49
2022/06/03 06:41:56;;;;;;;1.80;1.70;;;19.80;50.10;20.80;100938.00;;;;4984991;28;20270;-49
2022/06/03 06:44:51;;;;;;;1.97;1.80;;;19.80;50.40;20.90;100925.00;;;;4986832;28;20629;-50
2022/06/03 06:47:28;;;;;;;3.20;1.90;;;19.90;50.30;20.90;100942.00;;;;4986699;28;20172;-51
2022/06/03 06:50:16;;;;;;;2.03;1.80;;;19.80;50.20;20.90;100949.00;;;;4971295;28;20235;-50
2022/06/03 06:53:17;;;;;;;1.83;1.70;;;19.80;50.50;20.90;100944.00;;;;4850383;28;20172;-49
2022/06/03 06:56:02;;;;;;;2.37;1.80;;;19.80;50.70;20.90;100947.00;;;;4968095;28;20185;-49
2022/06/03 06:58:59;;;;;;;2.10;1.90;;;19.80;50.50;20.90;100936.00;;;;4985637;28;20184;-50
2022/06/03 07:01:49;;;;;;;2.00;1.80;;;19.80;50.30;20.90;100942.00;;;;4986941;28;20303;-50
2022/06/03 07:04:25;;;;;;;3.23;1.90;;;19.90;50.40;20.90;100944.00;;;;4973916;28;20156;-50
2022/06/03 07:07:07;;;;;;;2.03;1.73;;;19.90;50.40;20.90;100954.00;;;;4984471;28;20398;-51
2022/06/03 07:10:05;;;;;;;2.13;1.80;;;19.90;50.40;21.00;100949.00;;;;4986786;28;20230;-50
2022/06/03 07:12:51;;;;;;;1.80;1.70;;;19.90;50.50;21.00;100939.00;;;;4988009;28;20192;-49
2022/06/03 07:16:02;;;;;;;1.80;1.70;;;19.90;50.40;21.00;100946.00;;;;4973477;28;20180;-50
2022/06/03 07:21:50;;;;;;;1.73;1.63;;;19.80;50.70;21.00;100959.00;;;;4986981;28;20239;-50
2022/06/03 07:24:21;;;;;;;1.90;1.80;;;19.90;51.00;20.90;100950.00;;;;4990700;28;20157;-50
2022/06/03 07:26:56;;;;;;;1.77;1.67;;;19.90;50.90;21.00;100950.00;;;;4967204;28;20549;-50
2022/06/03 07:29:49;;;;;;;1.80;1.70;;;19.90;50.70;21.00;100962.00;;;;4984204;28;20679;-49
2022/06/03 07:32:25;;;;;;;2.63;1.73;;;19.90;50.40;21.00;100949.00;;;;4983999;28;20284;-49
2022/06/03 07:34:59;;;;;;;4.00;2.10;;;19.80;50.60;20.90;100932.00;;;;4975638;28;20194;-49
2022/06/03 07:37:26;;;;;;;2.57;1.90;;;19.80;50.30;21.00;100916.00;;;;4981979;28;20253;-49
2022/06/03 07:40:12;;;;;;;2.10;1.93;;;19.90;50.50;21.00;100935.00;;;;4982879;28;20212;-50
2022/06/03 07:43:06;;;;;;;1.80;1.70;;;19.90;50.80;21.00;100921.00;;;;4975579;28;20295;-49
2022/06/03 07:45:52;;;;;;;4.00;1.87;;;19.90;51.10;21.00;100920.00;;;;4983215;28;20176;-49
2022/06/03 07:48:22;;;;;;;2.17;1.80;;;19.90;51.00;21.00;100927.00;;;;4978706;28;20251;-50
2022/06/03 07:50:58;;;;;;;2.13;1.60;;;19.90;51.20;21.00;100921.00;;;;4969784;28;20268;-52
2022/06/03 07:54:23;;;;;;;1.83;1.73;;;19.90;51.40;21.00;100915.00;;;;4913851;28;20179;-49
2022/06/03 07:56:49;;;;;;;2.23;1.80;;;19.90;51.20;21.00;100918.00;;;;4984937;28;20203;-50
2022/06/03 07:59:19;;;;;;;2.00;1.80;;;19.90;52.30;21.00;100903.00;;;;4984532;28;20187;-51
2022/06/03 08:01:59;;;;;;;2.80;1.90;;;20.10;53.30;21.10;100915.00;;;;4971097;28;20223;-50
2022/06/03 08:04:27;;;;;;;3.07;1.80;;;20.10;52.70;21.10;100901.00;;;;4991828;28;20167;-49
2022/06/03 08:12:34;;;;;;;2.10;1.90;;;20.10;51.70;21.10;100900.00;;;;4991448;28;20610;-48
2022/06/03 08:15:26;;;;;;;5.50;2.00;;;20.20;51.80;21.10;100897.00;;;;4990340;28;21190;-46
2022/06/03 08:17:52;;;;;;;6.17;1.87;;;20.20;52.60;21.10;100888.00;;;;4990096;28;20785;-47
2022/06/03 08:20:19;;;;;;;4.63;2.00;;;20.20;53.00;21.10;100883.00;;;;4991420;28;20183;-46
2022/06/03 08:22:46;;;;;;;3.50;2.03;;;20.20;53.40;21.20;100888.00;;;;4991696;28;20243;-47
2022/06/03 08:25:15;;;;;;;7.77;2.30;;;20.20;53.50;21.20;100891.00;;;;4991861;28;20251;-46
2022/06/03 08:27:41;;;;;;;4.47;1.80;;;20.20;53.40;21.20;100886.00;;;;4991510;28;20469;-47
2022/06/03 08:30:11;;;;;;;2.80;1.80;;;20.20;53.50;21.20;100884.00;;;;4991037;28;20246;-45
2022/06/03 08:32:47;;;;;;;5.17;1.90;;;20.20;53.50;21.20;100891.00;;;;4991110;28;20239;-46
2022/06/03 08:35:19;;;;;;;2.57;1.80;;;20.20;53.60;21.30;100879.00;;;;4976290;28;20168;-48
2022/06/03 08:37:54;;;;;;;4.10;1.90;;;20.20;53.70;21.30;100882.00;;;;4975778;28;20649;-47
2022/06/03 08:41:03;;;;;;;4.33;1.90;;;20.20;53.90;21.30;100880.00;;;;4975578;28;20181;-46
2022/06/03 08:43:32;;;;;;;2.90;1.87;;;20.20;53.90;21.30;100879.00;;;;4991604;28;20175;-47
2022/06/03 08:46:15;;;;;;;3.17;1.83;;;20.20;53.90;21.30;100882.00;;;;4992328;28;20169;-47
2022/06/03 08:48:45;;;;;;;1.83;1.70;;;20.20;54.50;21.30;100875.00;;;;4960084;28;20168;-48
2022/06/03 08:51:16;;;;;;;2.40;1.80;;;20.30;54.30;21.30;100872.00;;;;4991562;28;20219;-46
2022/06/03 08:53:59;;;;;;;2.73;1.80;;;20.30;54.40;21.40;100873.00;;;;4991155;28;20168;-46
2022/06/03 08:56:32;;;;;;;1.90;1.80;;;20.30;54.60;21.40;100878.00;;;;4977710;28;20745;-47
2022/06/03 08:59:05;;;;;;;2.50;1.70;;;20.30;54.40;21.40;100875.00;;;;4975849;28;20188;-47
2022/06/03 09:01:55;;;;;;;2.37;1.80;;;20.30;54.40;21.40;100871.00;;;;4975651;28;20274;-47
2022/06/03 09:04:20;;;;;;;2.00;1.70;;;20.30;54.40;21.40;100871.00;;;;4975817;28;20251;-47
2022/06/03 09:07:33;;;;;;;2.47;1.80;;;20.30;54.70;21.40;100860.00;;;;4992589;28;20272;-47
2022/06/03 09:10:25;;;;;;;2.77;1.70;;;20.40;54.80;21.40;100866.00;;;;4991472;28;20164;-47
2022/06/03 09:13:15;;;;;;;1.70;1.60;;;20.40;54.90;21.40;100866.00;;;;4990800;28;20812;-47
2022/06/03 09:15:43;;;;;;;1.70;1.60;;;20.40;54.80;21.40;100852.00;;;;4975651;28;20548;-46
2022/06/03 09:18:18;;;;;;;1.73;1.60;;;20.40;54.80;21.40;100863.00;;;;4983794;28;20192;-48
2022/06/03 09:21:14;;;;;;;1.80;1.70;;;20.40;54.90;21.50;100865.00;;;;4988535;28;20205;-48
2022/06/03 09:23:52;;;;;;;1.90;1.80;;;20.40;54.90;21.50;100859.00;;;;4980035;28;20166;-49
2022/06/03 09:26:36;;;;;;;1.83;1.70;;;20.40;54.90;21.50;100866.00;;;;4976625;28;20158;-46
2022/06/03 09:29:04;;;;;;;1.90;1.80;;;20.40;55.10;21.50;100852.00;;;;4976018;28;20255;-47
2022/06/03 09:31:29;;;;;;;1.80;1.70;;;20.50;55.20;21.50;100858.00;;;;4975246;28;20198;-47
2022/06/03 09:33:55;;;;;;;1.60;1.50;;;20.50;55.00;21.50;100857.00;;;;4976724;28;20174;-47
2022/06/03 09:36:23;;;;;;;1.80;1.70;;;20.60;55.30;21.60;100856.00;;;;4991589;28;20260;-47
2022/06/03 09:39:10;;;;;;;1.70;1.60;;;20.60;55.10;21.60;100852.00;;;;4990919;28;20629;-47
2022/06/03 09:41:48;;;;;;;1.67;1.57;;;20.60;55.10;21.60;100837.00;;;;4991465;28;20212;-48
2022/06/03 09:44:15;;;;;;;2.23;1.70;;;20.60;55.10;21.60;100847.00;;;;4975722;28;20173;-47
2022/06/03 09:46:40;;;;;;;1.80;1.70;;;20.60;55.10;21.60;100847.00;;;;4990598;28;20571;-48
2022/06/03 09:49:06;;;;;;;1.63;1.53;;;20.60;55.10;21.60;100834.00;;;;4990502;28;20177;-48
2022/06/03 09:51:55;;;;;;;1.73;1.63;;;20.60;55.10;21.70;100836.00;;;;4990736;28;20276;-48
2022/06/03 09:54:34;;;;;;;1.70;1.60;;;20.70;55.80;21.70;100826.00;;;;4991212;28;20162;-47
2022/06/03 09:57:30;;;;;;;1.77;1.67;;;20.70;55.20;21.70;100831.00;;;;4990025;28;20160;-47
2022/06/03 10:00:14;;;;;;;1.80;1.70;;;20.80;56.00;21.70;100821.00;;;;4990438;28;20208;-45
2022/06/03 10:02:41;;;;;;;1.80;1.70;;;20.80;54.60;21.70;100835.00;;;;4990247;28;20259;-46
2022/06/03 10:05:07;;;;;;;1.70;1.60;;;20.80;54.90;21.80;100822.00;;;;4991449;28;20886;-47
2022/06/03 10:07:33;;;;;;;2.00;1.67;;;20.80;55.00;21.80;100839.00;;;;4990127;28;20185;-48
2022/06/03 10:12:50;;;;;;;1.70;1.60;;;20.90;55.00;21.80;100825.00;;;;4990333;28;20180;-47
2022/06/03 10:15:42;;;;;;;2.77;1.83;;;20.90;55.20;21.90;100826.00;;;;4920039;28;20190;-47
2022/06/03 10:18:39;;;;;;;4.70;1.70;;;20.90;56.00;21.90;100831.00;;;;4970511;28;20285;-48
2022/06/03 10:21:07;;;;;;;4.40;1.90;;;21.00;56.30;21.90;100834.00;;;;4986473;28;20218;-46
2022/06/03 10:23:42;;;;;;;2.20;1.80;;;21.00;55.90;21.90;100820.00;;;;4995853;28;20174;-49
2022/06/03 10:26:08;;;;;;;3.23;1.90;;;21.00;56.10;22.00;100820.00;;;;4994173;28;20538;-47
2022/06/03 10:28:36;;;;;;;3.30;1.70;;;21.10;56.20;22.00;100810.00;;;;4994950;28;20178;-46
2022/06/03 10:31:13;;;;;;;3.20;1.80;;;21.10;56.20;22.00;100811.00;;;;4991216;28;20681;-46
2022/06/03 10:33:39;;;;;;;2.80;1.90;;;21.10;56.20;22.10;100804.00;;;;4990415;28;20174;-46
2022/06/03 10:36:06;;;;;;;2.33;1.57;;;21.20;56.20;22.10;100797.00;;;;4992450;28;20201;-46
2022/06/03 10:38:36;;;;;;;1.67;1.57;;;21.20;56.40;22.10;100798.00;;;;4991319;28;20285;-46
2022/06/03 10:41:08;;;;;;;1.80;1.70;;;21.20;57.00;22.10;100794.00;;;;4990909;28;20694;-46
2022/06/03 10:43:34;;;;;;;2.53;1.63;;;21.20;56.40;22.20;100804.00;;;;4989878;28;20211;-46
2022/06/03 10:46:13;;;;;;;2.43;1.70;;;21.30;56.70;22.20;100800.00;;;;4991540;28;20229;-46
2022/06/03 10:48:39;;;;;;;2.93;1.60;;;21.20;56.60;22.00;100792.00;;;;4990673;28;20160;-46
2022/06/03 10:51:19;;;;;;;1.70;1.60;;;21.30;56.70;22.20;100798.00;;;;4991169;28;20195;-48
2022/06/03 11:02:33;;;;;;;2.60;1.60;;;21.40;56.80;22.30;100788.00;;;;4991073;28;20262;-47
2022/06/03 11:05:23;;;;;;;2.00;1.80;;;21.50;56.90;22.40;100779.00;;;;4990738;28;20176;-47
2022/06/03 11:08:02;;;;;;;2.07;1.70;;;21.50;56.80;22.40;100784.00;;;;4997554;28;20156;-47
2022/06/03 11:10:45;;;;;;;4.70;2.00;;;21.50;56.90;22.50;100780.00;;;;5004237;28;20224;-47
2022/06/03 11:13:13;;;;;;;3.40;1.93;;;21.60;57.70;22.50;100790.00;;;;4992835;28;20867;-47
2022/06/03 11:15:41;;;;;;;2.33;1.67;;;21.60;57.40;22.50;100777.00;;;;4989898;28;20172;-47
2022/06/03 11:18:19;;;;;;;2.00;1.80;;;21.60;57.50;22.50;100773.00;;;;4841388;28;20334;-47
2022/06/03 11:20:47;;;;;;;2.43;1.90;;;21.60;57.50;22.60;100770.00;;;;4989697;28;20295;-47
2022/06/03 11:23:13;;;;;;;2.73;1.70;;;21.70;57.80;22.60;100776.00;;;;4988741;28;20191;-46
2022/06/03 11:26:01;;;;;;;2.27;1.70;;;21.70;57.60;22.60;100775.00;;;;4972474;28;20229;-48
2022/06/03 11:28:39;;;;;;;2.47;1.70;;;21.70;57.50;22.70;100780.00;;;;4968336;28;20165;-47
2022/06/03 11:31:29;;;;;;;2.60;1.80;;;21.80;57.00;22.70;100752.00;;;;4969115;28;20196;-47
2022/06/03 11:34:16;;;;;;;2.23;1.80;;;21.80;57.50;22.70;100765.00;;;;4973087;28;20192;-47
2022/06/03 11:36:45;;;;;;;2.00;1.80;;;21.80;57.50;22.80;100757.00;;;;4991958;28;20534;-48
2022/06/03 11:39:25;;;;;;;3.13;2.10;;;21.90;57.70;22.80;100758.00;;;;4988839;28;20267;-47
2022/06/03 11:42:26;;;;;;;6.40;2.30;;;21.90;58.00;22.90;100744.00;;;;4974012;28;20234;-46
2022/06/03 11:45:18;;;;;;;9.03;2.50;;;22.00;58.00;22.90;100746.00;;;;4980766;28;20183;-47
2022/06/03 11:47:56;;;;;;;4.77;2.50;;;22.00;57.80;22.90;100745.00;;;;4988151;28;20242;-48
2022/06/03 11:50:25;;;;;;;6.17;2.60;;;22.00;57.60;23.00;100746.00;;;;4988506;28;20174;-48
2022/06/03 11:52:51;;;;;;;11.83;2.60;;;22.10;57.50;23.00;100744.00;;;;4988542;28;20172;-47
2022/06/03 11:55:22;;;;;;;5.07;2.60;;;22.10;57.70;23.00;100672.00;;;;4989391;28;20688;-48
2022/06/03 11:58:08;;;;;;;5.03;2.50;;;22.10;57.70;23.10;100729.00;;;;4989725;28;20177;-48
2022/06/03 12:00:48;;;;;;;5.63;2.63;;;22.20;57.80;23.10;100710.00;;;;4974799;28;20175;-47
2022/06/03 12:03:55;;;;;;;5.37;2.37;;;22.20;57.80;23.10;100720.00;;;;4973855;28;20843;-47
2022/06/03 12:06:38;;;;;;;6.17;2.40;;;22.20;57.50;23.20;100728.00;;;;4989313;28;20180;-47
2022/06/03 12:09:45;;;;;;;7.73;2.70;;;22.20;57.40;23.20;100730.00;;;;4972817;28;20168;-46
2022/06/03 12:15:30;;;;;;;4.17;2.30;;;22.40;57.20;23.30;100730.00;;;;4975519;28;20207;-47
2022/06/03 12:17:57;;;;;;;6.00;2.67;;;22.30;57.10;23.30;100726.00;;;;4905961;28;20312;-47
2022/06/03 12:20:32;;;;;;;3.60;2.30;;;22.40;57.10;23.40;100721.00;;;;4987574;28;20188;-46
2022/06/03 12:23:33;;;;;;;3.90;2.43;;;22.50;57.20;23.40;100713.00;;;;4988561;28;20557;-47
2022/06/03 12:25:59;;;;;;;4.23;2.03;;;22.50;57.20;23.50;100715.00;;;;4982353;28;20187;-48
2022/06/03 12:28:37;;;;;;;3.63;2.30;;;22.50;57.10;23.50;100710.00;;;;4979901;28;20177;-47
2022/06/03 12:31:14;;;;;;;3.93;2.30;;;22.50;57.20;23.50;100695.00;;;;4987953;28;20211;-48
2022/06/03 12:33:58;;;;;;;2.90;2.30;;;22.60;57.30;23.60;100713.00;;;;4973546;28;20183;-46
2022/06/03 12:36:47;;;;;;;3.97;2.13;;;22.60;57.20;23.60;100706.00;;;;4988223;28;20291;-47
2022/06/03 12:39:25;;;;;;;2.53;2.20;;;22.60;57.20;23.70;100700.00;;;;4988959;28;20183;-46